createdAt,value
2022-12-11T00:00:10.294Z,100.00
2022-12-11T00:03:15.820Z,100.00
2022-12-11T00:06:21.102Z,100.00
2022-12-11T00:09:23.243Z,100.00
2022-12-11T00:12:25.383Z,100.00
2022-12-11T00:15:28.177Z,100.00
2022-12-11T00:18:30.332Z,100.00
2022-12-11T00:21:32.841Z,100.00
2022-12-11T00:24:34.902Z,100.00
2022-12-11T00:27:36.981Z,100.00
2022-12-11T00:30:41.259Z,100.00
2022-12-11T00:33:46.332Z,100.00
2022-12-11T00:36:48.348Z,100.00
2022-12-11T00:39:50.335Z,100.00
2022-12-11T00:42:52.291Z,100.00
2022-12-11T00:45:54.343Z,100.00
2022-12-11T00:48:56.485Z,100.00
2022-12-11T00:51:58.542Z,100.00
2022-12-11T00:55:00.542Z,100.00
2022-12-11T00:58:02.496Z,100.00
2022-12-11T01:01:13.938Z,100.00
2022-12-11T01:04:15.918Z,100.00
2022-12-11T01:07:19.072Z,100.00
2022-12-11T01:10:24.253Z,100.00
2022-12-11T01:13:26.340Z,100.00
2022-12-11T01:16:28.375Z,99.68
2022-12-11T01:19:31.649Z,99.69
2022-12-11T01:22:33.668Z,98.39
2022-12-11T01:25:38.362Z,98.76
2022-12-11T01:28:41.581Z,98.80
2022-12-11T01:31:43.568Z,98.46
2022-12-11T01:34:45.548Z,98.40
2022-12-11T01:37:47.855Z,97.95
2022-12-11T01:40:51.450Z,97.21
2022-12-11T01:43:59.300Z,97.31
2022-12-11T01:47:01.335Z,97.51
2022-12-11T01:50:03.568Z,96.16
2022-12-11T01:53:09.077Z,96.58
2022-12-11T01:56:11.435Z,94.73
2022-12-11T01:59:18.054Z,94.47
2022-12-11T02:02:24.741Z,95.63
2022-12-11T02:05:26.838Z,95.17
2022-12-11T02:08:29.906Z,94.59
2022-12-11T02:11:42.844Z,94.65
2022-12-11T02:15:05.668Z,94.07
2022-12-11T02:18:25.611Z,93.78
2022-12-11T02:21:44.105Z,93.60
2022-12-11T02:25:19.212Z,93.45
2022-12-11T02:28:31.427Z,93.11
2022-12-11T02:31:49.318Z,92.92
2022-12-11T02:35:20.775Z,93.58
2022-12-11T02:38:30.336Z,92.98
2022-12-11T02:41:34.024Z,92.61
2022-12-11T02:44:37.257Z,92.87
2022-12-11T02:47:40.529Z,92.90
2022-12-11T02:50:54.315Z,92.44
2022-12-11T02:54:04.395Z,91.72
2022-12-11T02:57:17.077Z,90.07
2022-12-11T03:00:19.656Z,90.47
2022-12-11T03:03:22.280Z,89.56
2022-12-11T03:06:29.850Z,88.86
2022-12-11T03:09:32.623Z,89.66
2022-12-11T03:12:41.136Z,88.38
2022-12-11T03:16:12.489Z,87.21
2022-12-11T03:19:45.816Z,84.93
2022-12-11T03:23:02.929Z,84.47
2022-12-11T03:26:09.057Z,82.98
2022-12-11T03:29:31.989Z,83.22
2022-12-11T03:32:45.106Z,82.52
2022-12-11T03:35:56.275Z,81.66
2022-12-11T03:39:02.311Z,80.29
2022-12-11T03:42:09.050Z,79.96
2022-12-11T03:45:13.814Z,78.38
2022-12-11T03:48:18.973Z,77.92
2022-12-11T03:51:24.469Z,76.42
2022-12-11T03:54:27.774Z,76.14
2022-12-11T03:57:33.928Z,79.97
2022-12-11T04:00:36.404Z,80.23
2022-12-11T04:03:39.251Z,78.71
2022-12-11T04:06:41.269Z,79.90
2022-12-11T04:09:43.286Z,80.83
2022-12-11T04:12:45.282Z,81.37
2022-12-11T04:15:47.325Z,83.19
2022-12-11T04:19:08.040Z,82.56
2022-12-11T04:22:27.083Z,84.53
2022-12-11T04:25:29.138Z,84.94
2022-12-11T04:28:31.176Z,86.34
2022-12-11T04:31:33.290Z,86.38
2022-12-11T04:34:35.256Z,86.83
2022-12-11T04:37:37.965Z,87.60
2022-12-11T04:40:40.039Z,88.66
2022-12-11T04:43:45.447Z,88.83
2022-12-11T04:46:47.492Z,88.73
2022-12-11T04:49:49.602Z,88.15
2022-12-11T04:52:55.201Z,88.57
2022-12-11T04:55:57.621Z,88.91
2022-12-11T04:58:59.613Z,89.65
2022-12-11T05:02:01.740Z,90.51
2022-12-11T05:05:06.155Z,91.01
2022-12-11T05:08:08.657Z,91.22
2022-12-11T05:11:13.868Z,90.68
2022-12-11T05:14:15.986Z,90.61
2022-12-11T05:17:18.010Z,90.99
2022-12-11T05:20:19.930Z,90.13
2022-12-11T05:23:21.921Z,90.23
2022-12-11T05:26:24.008Z,90.56
2022-12-11T05:29:25.948Z,90.49
2022-12-11T05:32:28.649Z,89.84
2022-12-11T05:35:30.651Z,90.34
2022-12-11T05:38:32.763Z,90.52
2022-12-11T05:41:34.691Z,90.70
2022-12-11T05:44:36.709Z,90.28
2022-12-11T05:47:38.714Z,90.75
2022-12-11T05:50:40.675Z,90.54
2022-12-11T05:53:44.282Z,91.21
2022-12-11T05:56:46.315Z,91.62
2022-12-11T05:59:48.284Z,91.32
2022-12-11T06:02:50.354Z,91.04
2022-12-11T06:05:52.543Z,91.06
2022-12-11T06:08:56.801Z,90.68
2022-12-11T06:11:58.847Z,90.59
2022-12-11T06:15:00.804Z,91.06
2022-12-11T06:18:02.892Z,90.65
2022-12-11T06:21:27.783Z,90.88
2022-12-11T06:24:29.803Z,89.29
2022-12-11T06:27:31.792Z,89.97
2022-12-11T06:30:37.548Z,89.57
2022-12-11T06:33:41.454Z,88.79
2022-12-11T06:36:43.445Z,88.64
2022-12-11T06:39:45.573Z,88.81
2022-12-11T06:42:47.571Z,87.44
2022-12-11T06:45:49.611Z,86.92
2022-12-11T06:48:51.545Z,88.10
2022-12-11T06:51:53.668Z,88.47
2022-12-11T06:54:56.001Z,88.03
2022-12-11T06:57:58.013Z,87.69
2022-12-11T07:01:00.106Z,86.94
2022-12-11T07:04:02.243Z,85.28
2022-12-11T07:07:04.329Z,85.26
2022-12-11T07:10:08.604Z,84.62
2022-12-11T07:13:11.003Z,85.33
2022-12-11T07:16:14.960Z,85.51
2022-12-11T07:19:17.094Z,85.63
2022-12-11T07:22:19.136Z,86.10
2022-12-11T07:25:21.105Z,86.78
2022-12-11T07:28:23.291Z,87.23
2022-12-11T07:31:27.140Z,87.05
2022-12-11T07:34:29.316Z,86.93
2022-12-11T07:37:31.329Z,86.80
2022-12-11T07:40:34.067Z,85.17
2022-12-11T07:43:37.859Z,85.43
2022-12-11T07:46:40.642Z,84.70
2022-12-11T07:49:42.684Z,84.56
2022-12-11T07:52:44.773Z,83.45
2022-12-11T07:55:46.779Z,83.76
2022-12-11T07:58:48.873Z,82.96
2022-12-11T08:01:50.848Z,83.50
2022-12-11T08:04:52.833Z,83.06
2022-12-11T08:07:54.838Z,82.81
2022-12-11T08:10:56.961Z,82.54
2022-12-11T08:13:59.892Z,83.97
2022-12-11T08:17:02.690Z,83.48
2022-12-11T08:20:05.606Z,82.79
2022-12-11T08:23:07.591Z,82.97
2022-12-11T08:26:17.055Z,81.93
2022-12-11T08:29:18.937Z,82.14
2022-12-11T08:32:20.878Z,82.35
2022-12-11T08:35:25.834Z,81.93
2022-12-11T08:38:27.810Z,81.85
2022-12-11T08:41:30.937Z,81.85
2022-12-11T08:44:32.977Z,80.54
2022-12-11T08:47:35.013Z,82.67
2022-12-11T08:50:37.790Z,81.76
2022-12-11T08:53:40.225Z,82.13
2022-12-11T08:56:42.170Z,80.02
2022-12-11T08:59:44.151Z,78.66
2022-12-11T09:02:46.274Z,78.85
2022-12-11T09:05:48.369Z,78.32
2022-12-11T09:08:53.168Z,76.41
2022-12-11T09:11:55.765Z,77.26
2022-12-11T09:14:57.705Z,76.99
2022-12-11T09:17:59.681Z,75.80
2022-12-11T09:21:10.230Z,74.99
2022-12-11T09:24:13.685Z,76.28
2022-12-11T09:27:15.715Z,75.84
2022-12-11T09:30:17.789Z,76.03
2022-12-11T09:33:19.807Z,76.05
2022-12-11T09:36:22.444Z,76.04
2022-12-11T09:39:24.541Z,76.47
2022-12-11T09:42:51.325Z,77.89
2022-12-11T09:45:55.342Z,77.07
2022-12-11T09:48:57.810Z,76.62
2022-12-11T09:51:59.743Z,76.95
2022-12-11T09:55:10.209Z,77.52
2022-12-11T09:58:19.129Z,76.84
2022-12-11T10:01:39.162Z,75.14
2022-12-11T10:04:43.730Z,75.69
2022-12-11T10:07:45.691Z,76.69
2022-12-11T10:11:06.123Z,76.71
2022-12-11T10:14:17.509Z,76.31
2022-12-11T10:17:23.597Z,76.64
2022-12-11T10:20:39.577Z,75.61
2022-12-11T10:23:51.415Z,75.12
2022-12-11T10:26:58.517Z,77.85
2022-12-11T10:30:03.005Z,78.05
2022-12-11T10:33:07.865Z,77.61
2022-12-11T10:36:10.971Z,78.77
2022-12-11T10:39:19.010Z,79.38
2022-12-11T10:42:22.988Z,80.12
2022-12-11T10:45:25.169Z,80.75
2022-12-11T10:48:27.274Z,80.79
2022-12-11T10:51:32.039Z,79.92
2022-12-11T10:54:37.034Z,80.12
2022-12-11T10:57:39.765Z,79.91
2022-12-11T11:00:42.635Z,79.79
2022-12-11T11:04:07.502Z,79.88
2022-12-11T11:07:34.670Z,80.45
2022-12-11T11:10:36.847Z,80.77
2022-12-11T11:13:39.024Z,80.13
2022-12-11T11:16:43.274Z,80.55
2022-12-11T11:19:48.450Z,81.20
2022-12-11T11:23:00.267Z,80.80
2022-12-11T11:26:08.474Z,80.42
2022-12-11T11:29:29.391Z,77.64
2022-12-11T11:32:40.048Z,78.00
2022-12-11T11:35:56.098Z,76.79
2022-12-11T11:39:20.308Z,78.06
2022-12-11T11:42:43.933Z,77.25
2022-12-11T11:45:57.865Z,78.34
2022-12-11T11:49:20.556Z,75.70
2022-12-11T11:52:30.947Z,76.10
2022-12-11T11:55:52.262Z,74.30
2022-12-11T11:59:06.313Z,74.22
2022-12-11T12:02:16.322Z,74.50
2022-12-11T12:05:25.834Z,73.83
2022-12-11T12:08:33.571Z,74.86
2022-12-11T12:11:58.591Z,75.15
2022-12-11T12:15:20.256Z,76.05
2022-12-11T12:18:50.232Z,76.40
2022-12-11T12:21:53.227Z,76.34
2022-12-11T12:25:14.864Z,76.82
2022-12-11T12:28:28.605Z,78.11
2022-12-11T12:31:56.691Z,78.47
2022-12-11T12:35:11.993Z,78.70
2022-12-11T12:38:50.367Z,77.76
2022-12-11T12:42:07.528Z,79.54
2022-12-11T12:45:13.813Z,79.44
2022-12-11T12:48:16.406Z,79.98
2022-12-11T12:51:19.163Z,79.87
2022-12-11T12:54:22.308Z,80.78
2022-12-11T12:57:24.738Z,81.33
2022-12-11T13:00:36.573Z,82.02
2022-12-11T13:04:02.267Z,81.99
2022-12-11T13:07:20.385Z,82.00
2022-12-11T13:10:26.570Z,81.97
2022-12-11T13:13:40.959Z,82.02
2022-12-11T13:16:48.203Z,81.95
2022-12-11T13:19:57.714Z,82.21
2022-12-11T13:23:29.352Z,81.80
2022-12-11T13:26:33.184Z,82.05
2022-12-11T13:29:36.958Z,81.59
2022-12-11T13:32:39.416Z,81.09
2022-12-11T13:35:41.881Z,80.51
2022-12-11T13:38:52.092Z,80.73
2022-12-11T13:42:02.159Z,80.37
2022-12-11T13:45:05.979Z,80.62
2022-12-11T13:48:19.973Z,80.17
2022-12-11T13:51:24.890Z,80.51
2022-12-11T13:54:29.134Z,81.42
2022-12-11T13:57:31.174Z,81.34
2022-12-11T14:00:33.608Z,81.01
2022-12-11T14:03:36.330Z,81.82
2022-12-11T14:06:40.155Z,82.02
2022-12-11T14:09:46.201Z,81.82
2022-12-11T14:12:54.104Z,83.31
2022-12-11T14:15:56.262Z,84.37
2022-12-11T14:19:10.372Z,85.37
2022-12-11T14:22:24.699Z,85.66
2022-12-11T14:25:28.452Z,85.55
2022-12-11T14:28:38.218Z,86.23
2022-12-11T14:31:44.607Z,86.71
2022-12-11T14:34:49.250Z,87.15
2022-12-11T14:37:53.065Z,86.88
2022-12-11T14:41:03.560Z,87.37
2022-12-11T14:44:12.823Z,87.62
2022-12-11T14:47:21.167Z,86.86
2022-12-11T14:50:28.865Z,86.36
2022-12-11T14:53:38.106Z,86.34
2022-12-11T14:56:40.266Z,86.03
2022-12-11T14:59:47.261Z,86.32
2022-12-11T15:03:01.564Z,86.40
2022-12-11T15:06:23.799Z,86.34
2022-12-11T15:09:37.722Z,86.02
2022-12-11T15:12:45.401Z,84.42
2022-12-11T15:15:48.037Z,84.64
2022-12-11T15:18:52.505Z,84.18
2022-12-11T15:21:55.587Z,83.94
2022-12-11T15:25:00.436Z,84.25
2022-12-11T15:28:02.489Z,84.05
2022-12-11T15:31:06.058Z,83.79
2022-12-11T15:34:23.234Z,83.09
2022-12-11T15:37:36.774Z,83.45
2022-12-11T15:40:39.711Z,83.40
2022-12-11T15:43:42.630Z,84.28
2022-12-11T15:46:45.048Z,85.27
2022-12-11T15:49:47.574Z,84.61
2022-12-11T15:52:51.810Z,84.66
2022-12-11T15:55:54.451Z,85.21
2022-12-11T15:59:04.825Z,85.05
2022-12-11T16:02:13.390Z,84.66
2022-12-11T16:05:15.841Z,84.88
2022-12-11T16:08:20.437Z,85.15
2022-12-11T16:11:22.478Z,85.74
2022-12-11T16:14:24.592Z,85.62
2022-12-11T16:17:27.074Z,85.80
2022-12-11T16:20:31.130Z,85.85
2022-12-11T16:23:33.331Z,86.18
2022-12-11T16:26:35.700Z,85.37
2022-12-11T16:29:40.115Z,85.05
2022-12-11T16:32:43.095Z,84.83
2022-12-11T16:35:50.358Z,84.60
2022-12-11T16:38:54.220Z,83.28
2022-12-11T16:41:57.054Z,83.87
2022-12-11T16:45:06.763Z,83.46
2022-12-11T16:48:09.700Z,84.14
2022-12-11T16:51:11.974Z,84.38
2022-12-11T16:54:14.105Z,84.27
2022-12-11T16:57:16.802Z,83.58
2022-12-11T17:00:19.071Z,84.24
2022-12-11T17:03:21.117Z,84.43
2022-12-11T17:06:23.624Z,84.88
2022-12-11T17:09:26.337Z,84.58
2022-12-11T17:12:32.334Z,85.22
2022-12-11T17:15:40.167Z,86.16
2022-12-11T17:18:43.601Z,86.57
2022-12-11T17:21:51.649Z,86.32
2022-12-11T17:24:54.405Z,86.08
2022-12-11T17:27:57.836Z,86.09
2022-12-11T17:31:05.498Z,87.19
2022-12-11T17:34:08.731Z,87.29
2022-12-11T17:37:11.567Z,87.39
2022-12-11T17:40:19.302Z,88.02
2022-12-11T17:43:22.368Z,88.14
2022-12-11T17:46:25.082Z,88.84
2022-12-11T17:49:28.241Z,88.45
2022-12-11T17:52:35.008Z,88.60
2022-12-11T17:55:44.308Z,88.21
2022-12-11T17:58:46.911Z,88.49
2022-12-11T18:01:49.627Z,88.41
2022-12-11T18:04:52.647Z,88.65
2022-12-11T18:07:57.878Z,88.88
2022-12-11T18:11:16.915Z,88.77
2022-12-11T18:14:19.691Z,88.62
2022-12-11T18:17:22.121Z,88.59
2022-12-11T18:20:25.403Z,88.65
2022-12-11T18:23:28.672Z,88.78
2022-12-11T18:26:35.231Z,87.98
2022-12-11T18:29:37.874Z,88.53
2022-12-11T18:32:46.935Z,88.20
2022-12-11T18:35:51.963Z,88.26
2022-12-11T18:38:54.455Z,88.53
2022-12-11T18:42:30.649Z,88.83
2022-12-11T18:45:20.381Z,88.76
2022-12-11T18:48:23.901Z,88.74
2022-12-11T18:51:27.231Z,88.18
2022-12-11T18:54:30.160Z,88.05
2022-12-11T18:57:33.195Z,87.88
2022-12-11T19:00:39.868Z,87.87
2022-12-11T19:03:43.164Z,87.76
2022-12-11T19:06:46.604Z,88.21
2022-12-11T19:09:49.760Z,87.75
2022-12-11T19:12:52.810Z,87.84
2022-12-11T19:15:57.255Z,88.01
2022-12-11T19:19:01.425Z,88.25
2022-12-11T19:22:06.200Z,88.27
2022-12-11T19:25:09.624Z,87.98
2022-12-11T19:28:13.541Z,88.48
2022-12-11T19:31:19.656Z,88.29
2022-12-11T19:34:26.875Z,88.53
2022-12-11T19:37:29.541Z,88.29
2022-12-11T19:40:32.664Z,87.94
2022-12-11T19:43:38.111Z,87.97
2022-12-11T19:46:41.518Z,87.41
2022-12-11T19:49:44.921Z,87.04
2022-12-11T19:52:48.841Z,86.54
2022-12-11T19:55:54.670Z,86.86
2022-12-11T19:58:58.014Z,86.92
2022-12-11T20:02:01.255Z,87.13
2022-12-11T20:05:04.923Z,87.02
2022-12-11T20:08:42.294Z,86.92
2022-12-11T20:11:33.186Z,86.53
2022-12-11T20:14:37.232Z,86.80
2022-12-11T20:17:44.512Z,86.64
2022-12-11T20:20:47.815Z,84.15
2022-12-11T20:23:52.219Z,84.56
2022-12-11T20:26:57.711Z,84.92
2022-12-11T20:30:00.689Z,85.15
2022-12-11T20:33:07.090Z,85.57
2022-12-11T20:36:14.277Z,85.44
2022-12-11T20:39:17.411Z,84.97
2022-12-11T20:42:20.848Z,84.87
2022-12-11T20:45:23.703Z,84.48
2022-12-11T20:48:26.859Z,83.32
2022-12-11T20:51:33.087Z,84.03
2022-12-11T20:54:35.487Z,83.97
2022-12-11T20:57:44.770Z,83.91
2022-12-11T21:00:48.817Z,84.17
2022-12-11T21:03:55.083Z,84.45
2022-12-11T21:06:58.586Z,84.56
2022-12-11T21:10:00.762Z,84.23
2022-12-11T21:13:03.191Z,84.12
2022-12-11T21:16:08.136Z,84.00
2022-12-11T21:19:16.649Z,83.71
2022-12-11T21:22:19.651Z,83.91
2022-12-11T21:25:21.806Z,83.83
2022-12-11T21:28:24.101Z,84.02
2022-12-11T21:31:27.479Z,84.20
2022-12-11T21:34:29.878Z,84.05
2022-12-11T21:37:32.369Z,83.53
2022-12-11T21:40:34.825Z,83.51
2022-12-11T21:43:42.754Z,83.45
2022-12-11T21:46:59.628Z,83.45
2022-12-11T21:50:01.715Z,82.87
2022-12-11T21:53:04.014Z,82.94
2022-12-11T21:56:07.958Z,82.98
2022-12-11T21:59:10.391Z,82.90
2022-12-11T22:02:12.443Z,82.91
2022-12-11T22:05:14.685Z,82.08
2022-12-11T22:08:17.170Z,82.04
2022-12-11T22:11:21.373Z,82.55
2022-12-11T22:14:23.428Z,83.05
2022-12-11T22:17:25.400Z,83.38
2022-12-11T22:20:27.440Z,83.44
2022-12-11T22:23:29.497Z,83.35
2022-12-11T22:26:31.495Z,83.45
2022-12-11T22:29:33.580Z,83.23
2022-12-11T22:32:35.624Z,83.68
2022-12-11T22:35:38.157Z,83.60
2022-12-11T22:38:40.294Z,83.86
2022-12-11T22:41:42.727Z,83.59
2022-12-11T22:44:44.686Z,83.53
2022-12-11T22:47:46.760Z,83.59
2022-12-11T22:50:48.741Z,83.61
2022-12-11T22:53:51.326Z,83.41
2022-12-11T22:56:53.358Z,83.75
2022-12-11T22:59:57.104Z,84.05
2022-12-11T23:02:59.193Z,83.67
2022-12-11T23:06:05.409Z,84.25
2022-12-11T23:09:07.721Z,83.67
2022-12-11T23:12:09.773Z,83.26
2022-12-11T23:15:12.399Z,84.08
2022-12-11T23:18:14.864Z,84.20
2022-12-11T23:21:17.141Z,84.34
2022-12-11T23:24:19.229Z,84.28
2022-12-11T23:27:21.472Z,84.49
2022-12-11T23:30:24.149Z,83.32
2022-12-11T23:33:26.178Z,83.64
2022-12-11T23:36:29.296Z,83.21
2022-12-11T23:39:31.304Z,82.28
2022-12-11T23:42:33.850Z,82.52
2022-12-11T23:45:35.881Z,80.42
2022-12-11T23:48:37.987Z,81.13
2022-12-11T23:51:40.252Z,81.63
2022-12-11T23:54:42.297Z,81.73
2022-12-11T23:57:44.270Z,81.49
